• Join FlightAware (Why Join?)
  • Login
  • US Flag 
09:24PM EST


 

Airport Tracker/Info


-or-


 

Live Flight TrackerFlight Track Log ✈ EJA658 ✈ 21-Apr-2013 ✈ KUNV - KMMU

Flight Track Log - Related Links

Times and Time Zones

All times are in EDT time to prevent confusion due to time zone crossing. See the EJA658 flight status page for this flight to view local times or setup timezone preferences in your user account.

Time Position Orientation Groundspeed Altitude Reporting Facility
EDT Latitude Longitude Course Direction KTS MPH feet Rate Location/Type
04:08PM 40.8658 -77.7906 74° East 392 451 17,000  Level New York Center
04:09PM 40.8833 -77.7044 75° East 311 358 5,200 -4,440 Descending New York Center
04:10PM 40.9003 -77.6294 73° East 270 311 8,300 3,540 Climbing New York Center
04:11PM 40.9186 -77.5294 76° East 263 303 12,400 3,660 Climbing New York Center
04:12PM 40.9760 -77.1819 73° East  Level FlightAware Approximate
04:12PM 40.9417 -77.4164 75° East 285 328 15,700  Level New York Center
04:13PM 41.0037 -77.0500 74° East  Level FlightAware Approximate
04:13PM 40.9703 -77.2736 75° East 323 372 17,100  Level New York Center
04:14PM 41.0329 -76.9186 74° East  Level FlightAware Approximate
04:14PM 40.9967 -77.1331 76° East 369 425 17,100  Level New York Center
04:15PM 41.0250 -76.9925 75° East 388 447 17,100  Level New York Center
04:16PM 41.0533 -76.8492 75° East 393 452 17,100  Level New York Center
04:17PM 41.0811 -76.7086 75° East 393 452 17,100  Level New York Center
04:18PM 41.1072 -76.5650 76° East 393 452 17,100  Level New York Center
04:19PM 41.1347 -76.4239 75° East 393 452 17,100  Level New York Center
04:20PM 41.1622 -76.2831 75° East 393 452 17,100  Level New York Center
04:21PM 41.1869 -76.1525 76° East 393 452 17,100  Level New York Center
04:22PM 41.2169 -75.9950 76° East 393 452 17,100 -60 Level New York Center
04:23PM 41.2442 -75.8508 76° East 393 452 17,000 -120 Descending New York Center
04:24PM 41.2647 -75.7089 79° East 393 452 16,900 -720 Descending New York Center
04:25PM 41.2383 -75.5856 106° East 377 434 15,600 -1,440 Descending New York Center
04:26PM 41.1900 -75.4414 114° Southeast 382 440 14,000 -1,860 Descending New York Center
04:27PM 41.1508 -75.3231 114° Southeast 366 421 12,000 -1,920 Descending New York Center
04:28PM 41.1117 -75.2075 114° Southeast 347 399 10,200 -1,740 Descending New York Center
04:29PM 41.0836 -75.1231 114° Southeast 303 349 8,600 -1,680 Descending New York Center
04:30PM 41.0533 -75.0331 114° Southeast 272 313 7,000 -1,320 Descending New York Center
04:31PM 41.0128 -74.9453 121° Southeast 260 299 6,000 -660 Descending New York Center
04:32PM 40.9736 -74.8742 126° Southeast 266 306 5,700 -720 Descending New York Center
04:33PM 40.9264 -74.7944 128° Southeast 262 302 4,600 -840 Descending New York Center
04:34PM 40.8908 -74.7347 128° Southeast 239 275 4,100 -300 Descending New York Center
04:35PM 40.8431 -74.6744 136° Southeast 221 254 4,100 -240 Level New York Center
04:36PM 40.7914 -74.6606 168° South 209 241 3,700 -720 Descending New York Center
04:37PM 40.7294 -74.6406 166° South 214 246 2,700 -900 Descending New York Center
04:38PM 40.6861 -74.6242 164° South 199 229 2,000 -420 Descending New York Center
04:39PM 40.6667 -74.6000 137° Southeast 186 214 2,100 60 Climbing New York TRACON
04:40PM 40.6833 -74.5500 66° East 172 198 2,100  Level New York TRACON
04:41PM 40.7167 -74.5167 37° Northeast 178 205 2,100 -180 Level New York TRACON
04:42PM 40.7500 -74.4667 49° Northeast 165 190 1,800 -600 Descending New York TRACON
04:43PM 40.7667 -74.4333 57° Northeast 119 137 900 -900 Descending New York TRACON
04:45PM 40.7833 -74.4000 63° Northeast  Level FlightAware Approximate
04:52PM 40.7993 -74.4149 63° Northeast  Level Estimated
04:53PM 40.7993 -74.4149 63° Northeast  Level Estimated